Time,TemperatureF,DewpointF,PressureIn,WindDirection,WindDirectionDegrees,WindSpeedMPH,WindSpeedGustMPH,Humidity,HourlyPrecipIn,Conditions,Clouds,dailyrainin,SoftwareType,DateUTC
2013-04-25 00:02:00,35.6,29.0,30.17,South,179,0.0,2.0,76,0.00,,,0.00,weatherlink.com 1.10,2013-04-25 04:02:00,
2013-04-25 00:17:00,35.3,29.0,30.17,South,187,0.0,1.0,78,0.00,,,0.00,weatherlink.com 1.10,2013-04-25 04:17:00,
2013-04-25 00:32:00,34.8,29.0,30.18,South,181,0.0,2.0,79,0.00,,,0.00,weatherlink.com 1.10,2013-04-25 04:32:00,
2013-04-25 00:47:00,34.2,29.0,30.17,South,181,0.0,1.0,80,0.00,,,0.00,weatherlink.com 1.10,2013-04-25 04:47:00,
2013-04-25 01:02:00,33.6,29.0,30.17,South,181,0.0,0.0,82,0.00,,,0.00,weatherlink.com 1.10,2013-04-25 05:02:00,
2013-04-25 01:17:00,32.9,29.0,30.17,South,181,0.0,0.0,84,0.00,,,0.00,weatherlink.com 1.10,2013-04-25 05:17:00,
2013-04-25 01:32:00,32.2,29.0,30.17,South,181,0.0,0.0,86,0.00,,,0.00,weatherlink.com 1.10,2013-04-25 05:32:00,
2013-04-25 01:48:00,31.5,28.0,30.17,South,181,0.0,0.0,88,0.00,,,0.00,weatherlink.com 1.10,2013-04-25 05:48:00,
2013-04-25 02:03:00,31.2,28.0,30.17,South,181,0.0,0.0,88,0.00,,,0.00,weatherlink.com 1.10,2013-04-25 06:03:00,
2013-04-25 02:18:00,30.8,28.0,30.16,South,190,1.0,2.0,89,0.00,,,0.00,weatherlink.com 1.10,2013-04-25 06:18:00,
2013-04-25 02:33:00,31.1,28.0,30.16,SW,222,1.0,3.0,88,0.00,,,0.00,weatherlink.com 1.10,2013-04-25 06:33:00,
2013-04-25 02:48:00,31.6,28.0,30.16,SW,232,0.0,2.0,87,0.00,,,0.00,weatherlink.com 1.10,2013-04-25 06:48:00,
2013-04-25 03:03:00,31.9,29.0,30.16,SW,232,0.0,1.0,87,0.00,,,0.00,weatherlink.com 1.10,2013-04-25 07:03:00,
2013-04-25 03:18:00,31.7,28.0,30.15,SW,232,1.0,1.0,87,0.00,,,0.00,weatherlink.com 1.10,2013-04-25 07:18:00,
2013-04-25 03:33:00,31.6,28.0,30.16,SW,232,0.0,2.0,87,0.00,,,0.00,weatherlink.com 1.10,2013-04-25 07:33:00,
2013-04-25 03:48:00,31.6,28.0,30.16,SW,232,0.0,1.0,87,0.00,,,0.00,weatherlink.com 1.10,2013-04-25 07:48:00,
2013-04-25 04:03:00,31.5,28.0,30.16,SW,227,1.0,2.0,88,0.00,,,0.00,weatherlink.com 1.10,2013-04-25 08:03:00,
2013-04-25 04:18:00,31.6,29.0,30.16,SW,221,0.0,1.0,88,0.00,,,0.00,weatherlink.com 1.10,2013-04-25 08:18:00,
2013-04-25 04:33:00,31.5,29.0,30.16,SW,221,0.0,0.0,89,0.00,,,0.00,weatherlink.com 1.10,2013-04-25 08:33:00,
2013-04-25 04:48:00,31.3,29.0,30.16,SW,221,0.0,0.0,89,0.00,,,0.00,weatherlink.com 1.10,2013-04-25 08:48:00,
2013-04-25 05:03:00,31.0,29.0,30.16,SW,221,0.0,1.0,90,0.00,,,0.00,weatherlink.com 1.10,2013-04-25 09:03:00,
2013-04-25 05:18:00,31.0,29.0,30.16,SW,219,0.0,2.0,91,0.00,,,0.00,weatherlink.com 1.10,2013-04-25 09:18:00,
2013-04-25 05:33:00,31.2,29.0,30.16,SW,219,0.0,1.0,91,0.00,,,0.00,weatherlink.com 1.10,2013-04-25 09:33:00,
2013-04-25 05:49:00,31.2,29.0,30.16,SW,219,0.0,0.0,90,0.00,,,0.00,weatherlink.com 1.10,2013-04-25 09:49:00,
2013-04-25 06:03:00,31.0,29.0,30.17,SW,219,0.0,1.0,90,0.00,,,0.00,weatherlink.com 1.10,2013-04-25 10:03:00,
2013-04-25 06:18:00,30.8,29.0,30.16,SW,219,0.0,1.0,91,0.00,,,0.00,weatherlink.com 1.10,2013-04-25 10:18:00,
2013-04-25 06:33:00,30.8,29.0,30.17,WSW,254,0.0,3.0,93,0.00,,,0.00,weatherlink.com 1.10,2013-04-25 10:33:00,
2013-04-25 06:48:00,31.1,29.0,30.16,WSW,254,0.0,1.0,93,0.00,,,0.00,weatherlink.com 1.10,2013-04-25 10:48:00,
2013-04-25 07:03:00,31.3,30.0,30.17,West,259,0.0,3.0,93,0.00,,,0.00,weatherlink.com 1.10,2013-04-25 11:03:00,
2013-04-25 07:18:00,32.5,31.0,30.17,SW,214,2.0,4.0,94,0.00,,,0.00,weatherlink.com 1.10,2013-04-25 11:18:00,
2013-04-25 07:33:00,35.9,32.0,30.17,SW,217,2.0,7.0,87,0.00,,,0.00,weatherlink.com 1.10,2013-04-25 11:33:00,
2013-04-25 07:48:00,36.9,33.0,30.16,SSW,194,2.0,4.0,84,0.00,,,0.00,weatherlink.com 1.10,2013-04-25 11:48:00,
2013-04-25 08:03:00,38.2,33.0,30.16,SSW,196,2.0,6.0,82,0.00,,,0.00,weatherlink.com 1.10,2013-04-25 12:03:00,
2013-04-25 08:18:00,38.8,33.0,30.15,SSW,200,2.0,6.0,81,0.00,,,0.00,weatherlink.com 1.10,2013-04-25 12:18:00,
2013-04-25 08:33:00,40.1,34.0,30.15,WSW,240,4.0,9.0,79,0.00,,,0.00,weatherlink.com 1.10,2013-04-25 12:33:00,
2013-04-25 08:48:00,40.7,34.0,30.15,SW,215,2.0,7.0,78,0.00,,,0.00,weatherlink.com 1.10,2013-04-25 12:48:00,
2013-04-25 09:03:00,41.8,35.0,30.15,SW,221,2.0,8.0,76,0.00,,,0.00,weatherlink.com 1.10,2013-04-25 13:03:00,
2013-04-25 09:18:00,42.2,34.0,30.14,SSW,211,3.0,6.0,74,0.00,,,0.00,weatherlink.com 1.10,2013-04-25 13:18:00,
2013-04-25 09:33:00,43.3,36.0,30.15,SW,223,2.0,7.0,74,0.00,,,0.00,weatherlink.com 1.10,2013-04-25 13:33:00,
2013-04-25 09:48:00,43.6,36.0,30.15,West,260,9.0,10.0,74,0.00,,,0.00,weatherlink.com 1.10,2013-04-25 13:48:00,
2013-04-25 10:03:00,44.1,36.0,30.15,SW,231,5.0,10.0,73,0.00,,,0.00,weatherlink.com 1.10,2013-04-25 14:03:00,
2013-04-25 10:18:00,44.2,36.0,30.14,West,274,1.0,7.0,73,0.00,,,0.00,weatherlink.com 1.10,2013-04-25 14:18:00,
2013-04-25 10:33:00,43.3,37.0,30.15,SW,227,3.0,9.0,79,0.00,,,0.00,weatherlink.com 1.10,2013-04-25 14:33:00,
2013-04-25 10:49:00,40.6,37.0,30.16,SSW,208,3.0,12.0,87,0.02,,,0.02,weatherlink.com 1.10,2013-04-25 14:49:00,
2013-04-25 11:04:00,39.8,37.0,30.16,SSW,211,2.0,5.0,91,0.03,,,0.03,weatherlink.com 1.10,2013-04-25 15:04:00,
2013-04-25 11:19:00,39.8,37.0,30.17,SSE,157,4.0,7.0,91,0.03,,,0.03,weatherlink.com 1.10,2013-04-25 15:19:00,
2013-04-25 11:34:00,39.9,38.0,30.17,SSW,204,4.0,9.0,91,0.03,,,0.03,weatherlink.com 1.10,2013-04-25 15:34:00,
2013-04-25 11:49:00,40.0,38.0,30.18,SW,234,3.0,7.0,91,0.01,,,0.03,weatherlink.com 1.10,2013-04-25 15:49:00,
2013-04-25 12:04:00,40.1,38.0,30.18,SSW,201,5.0,7.0,92,0.01,,,0.04,weatherlink.com 1.10,2013-04-25 16:04:00,
2013-04-25 12:19:00,41.5,39.0,30.18,SW,229,2.0,5.0,91,0.01,,,0.04,weatherlink.com 1.10,2013-04-25 16:19:00,
2013-04-25 12:34:00,43.0,40.0,30.18,South,186,4.0,7.0,90,0.01,,,0.04,weatherlink.com 1.10,2013-04-25 16:34:00,
2013-04-25 12:49:00,44.2,40.0,30.18,SSE,153,2.0,9.0,84,0.01,,,0.04,weatherlink.com 1.10,2013-04-25 16:49:00,
2013-04-25 13:04:00,46.8,41.0,30.17,South,181,3.0,7.0,80,0.00,,,0.04,weatherlink.com 1.10,2013-04-25 17:04:00,
2013-04-25 13:19:00,46.4,39.0,30.18,South,189,3.0,8.0,74,0.00,,,0.04,weatherlink.com 1.10,2013-04-25 17:19:00,
2013-04-25 13:34:00,46.6,38.0,30.17,SW,225,2.0,9.0,73,0.00,,,0.04,weatherlink.com 1.10,2013-04-25 17:34:00,
2013-04-25 13:49:00,44.5,38.0,30.19,WNW,285,3.0,15.0,78,0.00,,,0.04,weatherlink.com 1.10,2013-04-25 17:49:00,
2013-04-25 14:04:00,41.9,38.0,30.19,South,180,2.0,6.0,87,0.00,,,0.04,weatherlink.com 1.10,2013-04-25 18:04:00,
2013-04-25 14:19:00,46.4,40.0,30.19,SSE,158,5.0,7.0,78,0.00,,,0.04,weatherlink.com 1.10,2013-04-25 18:19:00,
2013-04-25 14:34:00,48.6,40.0,30.19,SE,139,3.0,8.0,72,0.00,,,0.04,weatherlink.com 1.10,2013-04-25 18:34:00,
2013-04-25 14:49:00,50.1,39.0,30.19,WSW,247,1.0,7.0,66,0.00,,,0.04,weatherlink.com 1.10,2013-04-25 18:49:00,
2013-04-25 15:04:00,49.4,39.0,30.19,East,98,2.0,9.0,67,0.00,,,0.04,weatherlink.com 1.10,2013-04-25 19:04:00,
2013-04-25 15:19:00,44.7,37.0,30.21,WSW,245,2.0,6.0,75,0.01,,,0.05,weatherlink.com 1.10,2013-04-25 19:19:00,
2013-04-25 15:34:00,46.4,42.0,30.20,SW,235,2.0,6.0,83,0.02,,,0.06,weatherlink.com 1.10,2013-04-25 19:34:00,
2013-04-25 15:49:00,50.1,41.0,30.20,WNW,300,3.0,10.0,71,0.03,,,0.07,weatherlink.com 1.10,2013-04-25 19:49:00,
2013-04-25 16:04:00,50.3,37.0,30.20,NNW,336,2.0,8.0,60,0.03,,,0.07,weatherlink.com 1.10,2013-04-25 20:04:00,
2013-04-25 16:19:00,49.9,35.0,30.21,NE,36,1.0,13.0,56,0.02,,,0.07,weatherlink.com 1.10,2013-04-25 20:19:00,
2013-04-25 16:34:00,50.6,35.0,30.21,WSW,242,3.0,11.0,55,0.01,,,0.07,weatherlink.com 1.10,2013-04-25 20:34:00,
2013-04-25 16:49:00,50.6,32.0,30.22,WNW,290,2.0,8.0,49,0.00,,,0.07,weatherlink.com 1.10,2013-04-25 20:49:00,
2013-04-25 17:04:00,51.0,33.0,30.22,NE,39,5.0,12.0,50,0.00,,,0.07,weatherlink.com 1.10,2013-04-25 21:04:00,
2013-04-25 17:19:00,51.0,34.0,30.23,NNE,19,7.0,7.0,52,0.00,,,0.07,weatherlink.com 1.10,2013-04-25 21:19:00,
2013-04-25 17:35:00,50.3,32.0,30.24,SW,225,3.0,9.0,50,0.00,,,0.07,weatherlink.com 1.10,2013-04-25 21:35:00,
2013-04-25 17:49:00,48.3,31.0,30.26,WSW,248,2.0,10.0,52,0.00,,,0.07,weatherlink.com 1.10,2013-04-25 21:49:00,
2013-04-25 18:04:00,48.4,32.0,30.26,WSW,248,5.0,11.0,54,0.00,,,0.07,weatherlink.com 1.10,2013-04-25 22:04:00,
2013-04-25 18:19:00,48.3,33.0,30.27,WSW,238,3.0,8.0,55,0.00,,,0.07,weatherlink.com 1.10,2013-04-25 22:19:00,
2013-04-25 18:34:00,47.6,31.0,30.27,West,263,4.0,12.0,53,0.00,,,0.07,weatherlink.com 1.10,2013-04-25 22:34:00,
2013-04-25 18:49:00,47.8,31.0,30.28,West,267,2.0,9.0,52,0.00,,,0.07,weatherlink.com 1.10,2013-04-25 22:49:00,
2013-04-25 19:04:00,47.3,30.0,30.29,WSW,257,2.0,6.0,52,0.00,,,0.07,weatherlink.com 1.10,2013-04-25 23:04:00,
2013-04-25 19:19:00,47.0,30.0,30.29,NNW,344,3.0,6.0,53,0.00,,,0.07,weatherlink.com 1.10,2013-04-25 23:19:00,
2013-04-25 19:34:00,46.9,30.0,30.29,SW,220,4.0,9.0,52,0.00,,,0.07,weatherlink.com 1.10,2013-04-25 23:34:00,
2013-04-25 19:49:00,46.2,30.0,30.30,South,188,2.0,4.0,54,0.00,,,0.07,weatherlink.com 1.10,2013-04-25 23:49:00,
2013-04-25 20:04:00,45.6,31.0,30.30,SSW,199,1.0,3.0,56,0.00,,,0.07,weatherlink.com 1.10,2013-04-26 00:04:00,
2013-04-25 20:20:00,45.1,30.0,30.31,NW,307,1.0,7.0,55,0.00,,,0.07,weatherlink.com 1.10,2013-04-26 00:20:00,
2013-04-25 20:35:00,44.7,30.0,30.32,WNW,296,0.0,3.0,57,0.00,,,0.07,weatherlink.com 1.10,2013-04-26 00:35:00,
2013-04-25 20:50:00,43.9,30.0,30.33,WSW,255,1.0,3.0,58,0.00,,,0.07,weatherlink.com 1.10,2013-04-26 00:50:00,
2013-04-25 21:05:00,43.3,31.0,30.33,WSW,255,0.0,1.0,63,0.00,,,0.07,weatherlink.com 1.10,2013-04-26 01:05:00,
2013-04-25 21:20:00,42.1,31.0,30.34,WSW,255,0.0,0.0,66,0.00,,,0.07,weatherlink.com 1.10,2013-04-26 01:20:00,
2013-04-25 21:35:00,41.0,32.0,30.35,WSW,255,0.0,0.0,70,0.00,,,0.07,weatherlink.com 1.10,2013-04-26 01:35:00,
2013-04-25 21:50:00,39.7,32.0,30.36,WSW,255,0.0,0.0,73,0.00,,,0.07,weatherlink.com 1.10,2013-04-26 01:50:00,
2013-04-25 22:05:00,38.7,31.0,30.37,WSW,255,0.0,0.0,74,0.00,,,0.07,weatherlink.com 1.10,2013-04-26 02:05:00,
2013-04-25 22:20:00,37.8,31.0,30.37,WSW,255,0.0,0.0,76,0.00,,,0.07,weatherlink.com 1.10,2013-04-26 02:20:00,
2013-04-25 22:35:00,36.9,30.0,30.38,WSW,255,0.0,0.0,77,0.00,,,0.07,weatherlink.com 1.10,2013-04-26 02:35:00,
2013-04-25 22:50:00,36.2,30.0,30.38,WSW,255,0.0,0.0,78,0.00,,,0.07,weatherlink.com 1.10,2013-04-26 02:50:00,
2013-04-25 23:05:00,35.6,30.0,30.38,WSW,255,0.0,0.0,79,0.00,,,0.07,weatherlink.com 1.10,2013-04-26 03:05:00,
2013-04-25 23:20:00,35.0,30.0,30.38,WSW,255,0.0,0.0,82,0.00,,,0.07,weatherlink.com 1.10,2013-04-26 03:20:00,
2013-04-25 23:35:00,34.5,30.0,30.38,WSW,255,0.0,0.0,83,0.00,,,0.07,weatherlink.com 1.10,2013-04-26 03:35:00,
2013-04-25 23:50:00,34.1,30.0,30.39,WSW,255,0.0,0.0,83,0.00,,,0.07,weatherlink.com 1.10,2013-04-26 03:50:00,